Time;durP1;ratioP1;P1;durP2;ratioP2;P2;SDS_P1;SDS_P2;PMS_P1;PMS_P2;Temp;Humidity;BMP_temperature;BMP_pressure;BME280_temperature;BME280_humidity;BME280_pressure;Samples;Min_cycle;Max_cycle;Signal;HPM_P1;HPM_P2
2021/10/05 00:00:20;;;;;;;9.32;7.65;;;;;;;;;;5017143;28;20042;-47
2021/10/05 00:02:48;;;;;;;8.43;7.18;;;;;;;;;;5026931;28;20530;-45
2021/10/05 00:05:15;;;;;;;9.02;7.28;;;;;;;;;;5028679;28;20505;-45
2021/10/05 00:07:42;;;;;;;9.55;7.60;;;;;;;;;;5025920;28;20053;-43
2021/10/05 00:10:10;;;;;;;14.32;8.50;;;;;;;;;;5031413;28;20088;-47
2021/10/05 00:12:37;;;;;;;8.48;6.85;;;;;;;;;;5029928;28;20056;-44
2021/10/05 00:15:05;;;;;;;9.32;7.80;;;;;;;;;;5025195;28;20120;-44
2021/10/05 00:17:34;;;;;;;8.68;6.95;;;;;;;;;;5019216;28;20136;-47
2021/10/05 00:20:01;;;;;;;9.13;7.10;;;;;;;;;;5030089;28;20055;-43
2021/10/05 00:22:28;;;;;;;9.25;7.45;;;;;;;;;;5028814;28;20132;-43
2021/10/05 00:24:55;;;;;;;10.90;7.38;;;;;;;;;;5019090;28;20129;-45
2021/10/05 00:27:22;;;;;;;9.52;7.20;;;;;;;;;;5024458;28;20041;-45
2021/10/05 00:29:48;;;;;;;9.23;7.40;;;;;;;;;;5029361;28;20045;-43
2021/10/05 00:32:15;;;;;;;9.80;7.03;;;;;;;;;;5028123;28;20045;-43
2021/10/05 00:34:42;;;;;;;10.27;7.47;;;;;;;;;;5028905;28;20050;-43
2021/10/05 00:37:09;;;;;;;9.80;7.50;;;;;;;;;;5028549;28;20073;-42
2021/10/05 00:39:35;;;;;;;11.73;8.35;;;;;;;;;;5027994;28;20077;-44
2021/10/05 00:42:04;;;;;;;8.90;7.07;;;;;;;;;;5030211;28;20124;-44
2021/10/05 00:44:31;;;;;;;9.98;8.45;;;;;;;;;;5029906;28;20471;-46
2021/10/05 00:47:03;;;;;;;12.68;8.88;;;;;;;;;;5042396;28;20128;-46
2021/10/05 00:49:30;;;;;;;12.18;9.40;;;;;;;;;;5026969;28;20124;-46
2021/10/05 00:51:59;;;;;;;10.80;8.75;;;;;;;;;;5032741;28;20124;-50
2021/10/05 00:54:26;;;;;;;13.80;8.48;;;;;;;;;;5033753;28;20053;-45
2021/10/05 00:56:53;;;;;;;12.98;8.65;;;;;;;;;;5031212;28;20045;-46
2021/10/05 00:59:20;;;;;;;11.63;9.00;;;;;;;;;;5026822;28;20121;-45
2021/10/05 01:01:47;;;;;;;11.98;8.68;;;;;;;;;;5026481;28;20041;-44
2021/10/05 01:04:14;;;;;;;12.13;9.70;;;;;;;;;;5030041;28;20418;-42
2021/10/05 01:06:47;;;;;;;13.80;9.60;;;;;;;;;;5033897;28;20051;-43
2021/10/05 01:09:14;;;;;;;10.57;8.32;;;;;;;;;;5029254;28;20041;-46
2021/10/05 01:11:41;;;;;;;11.68;9.00;;;;;;;;;;5034756;28;20099;-43
2021/10/05 01:14:08;;;;;;;12.73;9.32;;;;;;;;;;5031461;28;20042;-43
2021/10/05 01:16:35;;;;;;;11.95;9.02;;;;;;;;;;5032818;28;20048;-48
2021/10/05 01:19:02;;;;;;;11.60;8.07;;;;;;;;;;5031465;28;20148;-43
2021/10/05 01:21:29;;;;;;;14.30;9.77;;;;;;;;;;5033893;28;20068;-42
2021/10/05 01:24:03;;;;;;;14.48;10.95;;;;;;;;;;5031869;28;20137;-42
2021/10/05 01:26:30;;;;;;;16.77;12.20;;;;;;;;;;5031318;28;20111;-43
2021/10/05 01:28:57;;;;;;;14.50;11.15;;;;;;;;;;5026419;28;20072;-44
2021/10/05 01:31:24;;;;;;;14.00;10.77;;;;;;;;;;5033289;28;20141;-43
2021/10/05 01:33:50;;;;;;;15.77;12.10;;;;;;;;;;5030994;28;20053;-43
2021/10/05 01:36:17;;;;;;;16.63;11.38;;;;;;;;;;5030874;28;20132;-45
2021/10/05 01:38:44;;;;;;;15.98;11.40;;;;;;;;;;5022277;28;20052;-48
2021/10/05 01:41:11;;;;;;;18.33;12.93;;;;;;;;;;5036649;28;20037;-42
2021/10/05 01:43:37;;;;;;;21.38;14.50;;;;;;;;;;5031042;28;20072;-43
2021/10/05 01:46:11;;;;;;;20.30;13.63;;;;;;;;;;5033582;28;20112;-43
2021/10/05 01:48:38;;;;;;;20.15;14.13;;;;;;;;;;5031494;28;20047;-43
2021/10/05 01:51:05;;;;;;;20.08;13.57;;;;;;;;;;5023457;28;20116;-46
2021/10/05 01:53:32;;;;;;;17.48;13.48;;;;;;;;;;5031186;28;20410;-43
2021/10/05 01:55:59;;;;;;;22.90;14.98;;;;;;;;;;5030049;28;20543;-44
2021/10/05 01:58:26;;;;;;;22.27;15.27;;;;;;;;;;5030883;28;20060;-44
2021/10/05 02:00:53;;;;;;;23.13;16.17;;;;;;;;;;5029614;28;20116;-45
2021/10/05 02:03:20;;;;;;;24.33;16.77;;;;;;;;;;5033379;28;20049;-43
2021/10/05 02:05:47;;;;;;;24.73;15.63;;;;;;;;;;5030865;28;20046;-46
2021/10/05 02:08:14;;;;;;;22.98;16.85;;;;;;;;;;5026808;28;20097;-46
2021/10/05 02:10:41;;;;;;;22.60;15.68;;;;;;;;;;5031037;28;20414;-43
2021/10/05 02:13:08;;;;;;;24.67;15.85;;;;;;;;;;5031629;28;20048;-43
2021/10/05 02:15:38;;;;;;;23.25;14.15;;;;;;;;;;5025834;28;20476;-50
2021/10/05 02:18:05;;;;;;;19.90;14.05;;;;;;;;;;5033266;28;20041;-47
2021/10/05 02:20:33;;;;;;;21.20;14.00;;;;;;;;;;5030974;28;20048;-44
2021/10/05 02:23:00;;;;;;;23.13;14.93;;;;;;;;;;5030732;28;20085;-44
2021/10/05 02:25:27;;;;;;;18.40;13.32;;;;;;;;;;5029673;28;20422;-45
2021/10/05 02:27:53;;;;;;;22.83;15.05;;;;;;;;;;5028939;28;20038;-44
2021/10/05 02:30:20;;;;;;;23.90;15.25;;;;;;;;;;5031255;28;20125;-44
2021/10/05 02:32:47;;;;;;;20.95;13.25;;;;;;;;;;5029267;28;20477;-46
2021/10/05 02:35:14;;;;;;;18.45;13.27;;;;;;;;;;5031881;28;20124;-42
2021/10/05 02:37:41;;;;;;;22.15;15.10;;;;;;;;;;5027772;28;20120;-43
2021/10/05 02:40:08;;;;;;;24.25;15.65;;;;;;;;;;5034171;28;20049;-44
2021/10/05 02:42:36;;;;;;;27.73;17.23;;;;;;;;;;5028933;28;20136;-45
2021/10/05 02:45:04;;;;;;;25.55;16.67;;;;;;;;;;5024429;28;20060;-44
2021/10/05 02:47:31;;;;;;;21.83;15.50;;;;;;;;;;5040452;28;20061;-44
2021/10/05 02:49:58;;;;;;;22.77;15.30;;;;;;;;;;5030913;28;20053;-45
2021/10/05 02:52:25;;;;;;;25.95;16.15;;;;;;;;;;5029658;28;20116;-43
2021/10/05 02:54:52;;;;;;;24.50;16.25;;;;;;;;;;5025822;28;20049;-45
2021/10/05 02:57:19;;;;;;;30.42;16.77;;;;;;;;;;5028914;28;20502;-45
2021/10/05 02:59:46;;;;;;;26.38;16.77;;;;;;;;;;5025006;28;20128;-45
2021/10/05 03:02:13;;;;;;;26.90;17.73;;;;;;;;;;5030605;28;20061;-45
2021/10/05 03:04:40;;;;;;;26.95;17.23;;;;;;;;;;5032079;28;20065;-42
2021/10/05 03:07:08;;;;;;;27.10;16.67;;;;;;;;;;5029628;28;21913;-46
2021/10/05 03:09:34;;;;;;;22.70;15.05;;;;;;;;;;5028496;28;20092;-43
2021/10/05 03:12:02;;;;;;;23.33;15.73;;;;;;;;;;5029850;28;20124;-43
2021/10/05 03:14:29;;;;;;;20.65;14.13;;;;;;;;;;5031381;28;20399;-43
2021/10/05 03:16:56;;;;;;;19.83;14.07;;;;;;;;;;5028994;28;20124;-44
2021/10/05 03:19:22;;;;;;;20.90;13.75;;;;;;;;;;5026522;28;20046;-43
2021/10/05 03:21:49;;;;;;;22.92;15.30;;;;;;;;;;5021811;28;20125;-43
2021/10/05 03:24:16;;;;;;;26.73;17.42;;;;;;;;;;5031628;28;20048;-45
2021/10/05 03:26:43;;;;;;;24.25;15.50;;;;;;;;;;5026102;28;20041;-44
2021/10/05 03:29:10;;;;;;;23.30;14.95;;;;;;;;;;5022887;28;20129;-43
2021/10/05 03:31:37;;;;;;;21.13;14.77;;;;;;;;;;5025585;28;20041;-44
2021/10/05 03:34:04;;;;;;;20.35;13.75;;;;;;;;;;5028218;28;20112;-43
2021/10/05 03:36:31;;;;;;;24.20;15.25;;;;;;;;;;5030197;28;20132;-48
2021/10/05 03:38:58;;;;;;;23.75;15.23;;;;;;;;;;5023784;28;20051;-42
2021/10/05 03:41:24;;;;;;;22.30;15.35;;;;;;;;;;5029205;28;20388;-42
2021/10/05 03:43:51;;;;;;;24.00;15.00;;;;;;;;;;5029305;28;20212;-44
2021/10/05 03:46:18;;;;;;;22.27;14.45;;;;;;;;;;5030702;28;20406;-44
2021/10/05 03:48:45;;;;;;;21.05;14.45;;;;;;;;;;5030102;28;20099;-45
2021/10/05 03:51:12;;;;;;;22.00;14.45;;;;;;;;;;5028193;28;20041;-42
2021/10/05 03:53:39;;;;;;;24.45;15.25;;;;;;;;;;5028409;28;20116;-45
2021/10/05 03:56:05;;;;;;;27.25;14.88;;;;;;;;;;5029858;28;20081;-45
2021/10/05 03:58:32;;;;;;;21.35;13.57;;;;;;;;;;5029706;28;20047;-44
2021/10/05 04:01:03;;;;;;;23.85;15.38;;;;;;;;;;5029138;28;20120;-44
2021/10/05 04:03:31;;;;;;;19.85;13.05;;;;;;;;;;5027131;28;22676;-43
2021/10/05 04:05:58;;;;;;;20.92;14.40;;;;;;;;;;5029099;28;20124;-44
2021/10/05 04:08:25;;;;;;;24.75;13.98;;;;;;;;;;5028475;28;20036;-43
2021/10/05 04:10:52;;;;;;;21.75;13.55;;;;;;;;;;5029167;28;20133;-47
2021/10/05 04:13:19;;;;;;;24.75;14.85;;;;;;;;;;5030527;28;20065;-47
2021/10/05 04:15:45;;;;;;;20.60;12.95;;;;;;;;;;5029787;28;20041;-46
2021/10/05 04:18:12;;;;;;;21.00;13.30;;;;;;;;;;5024451;28;20037;-46
2021/10/05 04:20:39;;;;;;;25.83;16.33;;;;;;;;;;5029588;28;20509;-42
2021/10/05 04:23:06;;;;;;;29.02;16.52;;;;;;;;;;5036342;28;20041;-42
2021/10/05 04:25:32;;;;;;;25.90;15.55;;;;;;;;;;5036819;28;20037;-44
2021/10/05 04:27:59;;;;;;;25.55;16.10;;;;;;;;;;5030001;28;20033;-42
2021/10/05 04:30:26;;;;;;;25.23;15.88;;;;;;;;;;5020841;28;20050;-43
2021/10/05 04:32:53;;;;;;;22.58;14.93;;;;;;;;;;5033195;28;20052;-43
2021/10/05 04:35:20;;;;;;;22.38;13.70;;;;;;;;;;5032349;28;20132;-44
2021/10/05 04:37:47;;;;;;;22.77;14.27;;;;;;;;;;5036251;28;20033;-43
2021/10/05 04:40:13;;;;;;;24.58;14.65;;;;;;;;;;5036097;28;20037;-46
2021/10/05 04:42:40;;;;;;;24.08;15.25;;;;;;;;;;5036932;28;20042;-42
2021/10/05 04:45:07;;;;;;;24.77;14.77;;;;;;;;;;5031141;28;20128;-43
2021/10/05 04:47:35;;;;;;;30.15;16.20;;;;;;;;;;5018897;28;20048;-44
2021/10/05 04:50:07;;;;;;;25.92;15.63;;;;;;;;;;5036192;28;20045;-45
2021/10/05 04:52:35;;;;;;;26.00;16.30;;;;;;;;;;5034692;28;20045;-44
2021/10/05 04:55:02;;;;;;;24.80;15.32;;;;;;;;;;5026087;28;20684;-44
2021/10/05 04:57:29;;;;;;;25.02;16.10;;;;;;;;;;5027685;28;20049;-45
2021/10/05 04:59:55;;;;;;;25.27;15.88;;;;;;;;;;5019962;28;20405;-44
2021/10/05 05:02:22;;;;;;;25.63;15.70;;;;;;;;;;5020191;28;20056;-47
2021/10/05 05:04:49;;;;;;;24.38;15.90;;;;;;;;;;5037203;28;20037;-44
2021/10/05 05:07:16;;;;;;;30.08;17.90;;;;;;;;;;5033634;28;20483;-46
2021/10/05 05:09:43;;;;;;;29.08;17.08;;;;;;;;;;5037216;28;20073;-43
2021/10/05 05:12:10;;;;;;;28.92;17.33;;;;;;;;;;5036586;28;20490;-46
2021/10/05 05:14:36;;;;;;;28.52;17.25;;;;;;;;;;5034511;28;20063;-45
2021/10/05 05:17:03;;;;;;;28.42;15.98;;;;;;;;;;5029494;28;20472;-44
2021/10/05 05:19:30;;;;;;;27.90;15.70;;;;;;;;;;5034987;28;20132;-43
2021/10/05 05:21:59;;;;;;;25.25;15.82;;;;;;;;;;5038108;28;20136;-45
2021/10/05 05:24:27;;;;;;;23.77;14.60;;;;;;;;;;5049935;22;20059;-42
2021/10/05 05:26:54;;;;;;;27.83;15.52;;;;;;;;;;5053656;28;20041;-41
2021/10/05 05:29:21;;;;;;;26.58;14.77;;;;;;;;;;5049312;28;20037;-43
2021/10/05 05:31:48;;;;;;;31.05;15.65;;;;;;;;;;5043638;28;20071;-46
2021/10/05 05:34:15;;;;;;;27.48;15.45;;;;;;;;;;5047427;28;20124;-42
2021/10/05 05:36:42;;;;;;;23.95;13.45;;;;;;;;;;5031724;28;20395;-42
2021/10/05 05:39:09;;;;;;;25.02;14.63;;;;;;;;;;5031416;28;20410;-42
2021/10/05 05:41:35;;;;;;;25.88;14.07;;;;;;;;;;5032637;28;20048;-42
2021/10/05 05:44:02;;;;;;;23.98;13.48;;;;;;;;;;5028616;28;20038;-45
2021/10/05 05:46:29;;;;;;;24.17;14.35;;;;;;;;;;5016652;28;20038;-43
2021/10/05 05:48:56;;;;;;;23.63;14.63;;;;;;;;;;5039075;28;20043;-44
2021/10/05 05:51:23;;;;;;;23.45;13.85;;;;;;;;;;5041747;28;20072;-41
2021/10/05 05:53:50;;;;;;;24.02;12.73;;;;;;;;;;5030983;28;20046;-41
2021/10/05 05:56:16;;;;;;;21.95;13.68;;;;;;;;;;5015438;28;20133;-43
2021/10/05 05:58:43;;;;;;;23.17;13.80;;;;;;;;;;5032718;28;20099;-42
2021/10/05 06:01:11;;;;;;;20.77;12.13;;;;;;;;;;5030203;28;20055;-42
2021/10/05 06:03:38;;;;;;;19.60;12.45;;;;;;;;;;5030482;28;20115;-44
2021/10/05 06:06:05;;;;;;;20.38;12.75;;;;;;;;;;5030477;28;20068;-43
2021/10/05 06:08:32;;;;;;;22.63;13.00;;;;;;;;;;5027545;28;20033;-43
2021/10/05 06:10:59;;;;;;;20.17;12.75;;;;;;;;;;5033693;28;20052;-43
2021/10/05 06:13:26;;;;;;;21.42;13.40;;;;;;;;;;5030309;28;20497;-43
2021/10/05 06:15:53;;;;;;;18.65;11.93;;;;;;;;;;5031766;28;20041;-45
2021/10/05 06:18:20;;;;;;;19.90;12.38;;;;;;;;;;5020931;28;20069;-43
2021/10/05 06:20:46;;;;;;;24.48;14.70;;;;;;;;;;5032303;28;20037;-43
2021/10/05 06:23:13;;;;;;;19.75;12.13;;;;;;;;;;5030020;28;20048;-44
2021/10/05 06:25:41;;;;;;;19.40;12.07;;;;;;;;;;5027540;28;20122;-45
2021/10/05 06:28:08;;;;;;;20.88;11.40;;;;;;;;;;5025454;28;20046;-44
2021/10/05 06:30:36;;;;;;;21.25;11.98;;;;;;;;;;5019826;28;20044;-43
2021/10/05 06:33:03;;;;;;;22.70;13.02;;;;;;;;;;5030694;28;20116;-44
2021/10/05 06:35:31;;;;;;;21.40;12.50;;;;;;;;;;5030147;28;20129;-43
2021/10/05 06:37:59;;;;;;;23.15;12.93;;;;;;;;;;5026554;28;20128;-43
2021/10/05 06:40:27;;;;;;;21.70;12.35;;;;;;;;;;5026469;28;20050;-45
2021/10/05 06:42:54;;;;;;;22.60;11.90;;;;;;;;;;5030315;28;20038;-44
2021/10/05 06:45:21;;;;;;;23.52;12.30;;;;;;;;;;5030513;28;20033;-43
2021/10/05 06:47:48;;;;;;;25.52;13.27;;;;;;;;;;5024535;28;20033;-44
2021/10/05 06:50:15;;;;;;;19.48;11.30;;;;;;;;;;5030950;28;20033;-44
2021/10/05 06:52:42;;;;;;;21.02;10.70;;;;;;;;;;5030449;28;20043;-43
2021/10/05 06:55:09;;;;;;;20.83;10.95;;;;;;;;;;5028491;28;20046;-45
2021/10/05 06:57:36;;;;;;;20.55;11.70;;;;;;;;;;5028826;28;20047;-46
2021/10/05 07:00:04;;;;;;;17.40;10.27;;;;;;;;;;5028726;28;20049;-46
2021/10/05 07:02:31;;;;;;;18.65;9.57;;;;;;;;;;5031562;28;20049;-49
2021/10/05 07:04:58;;;;;;;16.67;9.73;;;;;;;;;;5029721;28;20049;-46
2021/10/05 07:07:24;;;;;;;17.73;9.68;;;;;;;;;;5030707;28;20513;-45
2021/10/05 07:09:51;;;;;;;16.55;8.95;;;;;;;;;;5027865;28;20037;-43
2021/10/05 07:12:18;;;;;;;15.60;8.43;;;;;;;;;;5030229;28;20047;-43
2021/10/05 07:14:45;;;;;;;16.27;8.77;;;;;;;;;;5026928;28;20084;-43
2021/10/05 07:17:11;;;;;;;15.82;8.10;;;;;;;;;;5028855;28;20053;-47
2021/10/05 07:19:45;;;;;;;16.33;8.10;;;;;;;;;;5028754;28;20436;-44
2021/10/05 07:22:12;;;;;;;18.25;8.77;;;;;;;;;;5029205;28;20486;-47
2021/10/05 07:24:39;;;;;;;14.27;8.40;;;;;;;;;;5029460;28;20041;-42
2021/10/05 07:27:06;;;;;;;14.45;8.43;;;;;;;;;;5027777;28;20050;-43
2021/10/05 07:29:32;;;;;;;18.42;8.57;;;;;;;;;;5022497;28;20133;-43
2021/10/05 07:32:00;;;;;;;16.30;8.35;;;;;;;;;;5025649;28;20084;-43
2021/10/05 07:34:27;;;;;;;13.68;8.52;;;;;;;;;;5023886;28;20045;-43
2021/10/05 07:36:54;;;;;;;13.25;7.22;;;;;;;;;;5029461;28;20049;-44
2021/10/05 07:39:20;;;;;;;12.60;7.20;;;;;;;;;;5016434;28;20152;-44
2021/10/05 07:41:47;;;;;;;11.85;7.18;;;;;;;;;;5030822;28;20140;-44
2021/10/05 07:44:14;;;;;;;12.15;6.88;;;;;;;;;;5026038;28;20525;-43
2021/10/05 07:46:41;;;;;;;10.82;6.82;;;;;;;;;;5017198;28;20038;-45
2021/10/05 07:49:08;;;;;;;10.73;6.72;;;;;;;;;;5027946;28;20033;-42
2021/10/05 07:51:34;;;;;;;12.95;7.03;;;;;;;;;;5029606;28;20208;-43
2021/10/05 07:54:02;;;;;;;11.35;7.15;;;;;;;;;;5025277;28;20043;-43
2021/10/05 07:56:29;;;;;;;10.25;6.65;;;;;;;;;;5021033;28;20041;-43
2021/10/05 07:58:55;;;;;;;10.68;6.45;;;;;;;;;;5023516;28;20051;-43
2021/10/05 08:01:22;;;;;;;10.32;6.60;;;;;;;;;;5026633;28;20049;-42
2021/10/05 08:03:49;;;;;;;9.18;6.13;;;;;;;;;;5022910;28;20061;-43
2021/10/05 08:06:16;;;;;;;10.95;6.80;;;;;;;;;;5024512;28;20044;-42
2021/10/05 08:08:44;;;;;;;10.05;6.35;;;;;;;;;;5022281;28;20408;-42
2021/10/05 08:11:11;;;;;;;9.35;6.53;;;;;;;;;;5023868;28;20041;-43
2021/10/05 08:13:38;;;;;;;10.52;6.03;;;;;;;;;;5021013;28;20124;-42
2021/10/05 08:16:04;;;;;;;9.77;5.95;;;;;;;;;;5017109;28;20046;-43
2021/10/05 08:18:31;;;;;;;8.57;6.00;;;;;;;;;;5026650;28;20045;-44
2021/10/05 08:20:58;;;;;;;8.57;5.75;;;;;;;;;;5013033;28;20388;-45
2021/10/05 08:23:25;;;;;;;9.80;6.32;;;;;;;;;;5019706;28;20053;-42
2021/10/05 08:25:52;;;;;;;9.13;5.65;;;;;;;;;;5022402;28;20034;-42
2021/10/05 08:28:19;;;;;;;8.00;5.40;;;;;;;;;;5025378;28;20048;-42
2021/10/05 08:30:47;;;;;;;8.63;5.50;;;;;;;;;;5026298;28;20052;-42
2021/10/05 08:33:14;;;;;;;8.02;5.80;;;;;;;;;;5026071;28;20038;-45
2021/10/05 08:35:41;;;;;;;8.60;5.68;;;;;;;;;;5036344;28;20051;-43
2021/10/05 08:38:08;;;;;;;8.05;5.20;;;;;;;;;;5035180;28;20034;-45
2021/10/05 08:40:35;;;;;;;9.25;6.10;;;;;;;;;;5028600;28;20045;-42
2021/10/05 08:43:02;;;;;;;7.72;5.70;;;;;;;;;;5022412;28;20049;-45
2021/10/05 08:45:29;;;;;;;8.40;5.35;;;;;;;;;;5030409;28;20125;-43
2021/10/05 08:47:56;;;;;;;7.57;5.32;;;;;;;;;;5027840;28;20072;-45
2021/10/05 08:50:25;;;;;;;8.38;5.05;;;;;;;;;;5028004;28;20083;-41
2021/10/05 08:52:52;;;;;;;8.63;5.28;;;;;;;;;;5028149;28;20121;-44
2021/10/05 08:55:19;;;;;;;7.88;5.10;;;;;;;;;;5028961;28;20128;-43
2021/10/05 08:57:47;;;;;;;10.25;6.07;;;;;;;;;;5028303;28;20044;-46
2021/10/05 09:00:14;;;;;;;8.13;5.63;;;;;;;;;;5028200;28;20043;-43
2021/10/05 09:02:43;;;;;;;7.45;5.18;;;;;;;;;;5030018;28;20505;-44
2021/10/05 09:05:13;;;;;;;7.80;5.35;;;;;;;;;;5029558;28;20042;-43
2021/10/05 09:07:43;;;;;;;7.43;5.50;;;;;;;;;;5027100;28;19963;-43
2021/10/05 09:10:11;;;;;;;8.80;5.97;;;;;;;;;;5025268;28;20124;-44
2021/10/05 09:12:38;;;;;;;8.13;5.63;;;;;;;;;;5026912;28;20578;-43
2021/10/05 09:15:06;;;;;;;8.68;5.85;;;;;;;;;;5030207;28;20176;-45
2021/10/05 09:17:35;;;;;;;9.57;6.63;;;;;;;;;;5030790;28;20470;-45
2021/10/05 09:20:13;;;;;;;11.05;6.63;;;;;;;;;;5028323;28;20041;-46
2021/10/05 09:22:40;;;;;;;8.55;6.47;;;;;;;;;;5031778;28;20111;-44
2021/10/05 09:25:10;;;;;;;7.45;5.80;;;;;;;;;;5035216;28;20111;-43
2021/10/05 09:27:47;;;;;;;9.00;6.03;;;;;;;;;;5023767;28;20559;-44
2021/10/05 09:30:17;;;;;;;8.43;6.00;;;;;;;;;;5027728;28;20038;-46
2021/10/05 09:32:57;;;;;;;10.50;6.32;;;;;;;;;;5031025;28;20057;-47
2021/10/05 09:35:24;;;;;;;11.13;6.88;;;;;;;;;;5033155;28;20038;-47
2021/10/05 09:37:54;;;;;;;8.10;5.88;;;;;;;;;;5029934;28;20045;-47
2021/10/05 09:40:24;;;;;;;8.73;5.77;;;;;;;;;;5014277;28;20041;-43
2021/10/05 09:42:52;;;;;;;7.28;5.15;;;;;;;;;;5036608;28;20121;-43
2021/10/05 09:45:21;;;;;;;10.02;5.80;;;;;;;;;;5030950;28;20443;-43
2021/10/05 09:47:50;;;;;;;8.90;6.38;;;;;;;;;;5033878;28;20044;-43
2021/10/05 09:50:22;;;;;;;9.48;6.80;;;;;;;;;;5027042;28;20398;-43
2021/10/05 09:52:50;;;;;;;9.32;6.55;;;;;;;;;;5033498;28;20079;-43
2021/10/05 09:55:18;;;;;;;9.25;5.60;;;;;;;;;;5030225;28;20037;-43
2021/10/05 09:57:45;;;;;;;7.57;5.65;;;;;;;;;;5030031;28;20068;-43
2021/10/05 10:00:12;;;;;;;7.72;5.20;;;;;;;;;;5021528;28;20042;-43
2021/10/05 10:02:42;;;;;;;8.80;5.88;;;;;;;;;;5034648;28;20209;-43
2021/10/05 10:05:10;;;;;;;8.73;5.82;;;;;;;;;;5030850;28;20050;-43
2021/10/05 10:07:38;;;;;;;8.20;5.10;;;;;;;;;;5030815;28;20069;-42
2021/10/05 10:10:07;;;;;;;9.05;5.63;;;;;;;;;;5030717;28;20108;-55
2021/10/05 10:12:35;;;;;;;6.60;4.82;;;;;;;;;;5030429;28;20045;-49
2021/10/05 10:15:03;;;;;;;8.00;5.47;;;;;;;;;;5030652;28;20060;-49
2021/10/05 10:17:31;;;;;;;7.63;5.38;;;;;;;;;;5029321;28;20049;-49
2021/10/05 10:19:58;;;;;;;7.55;4.75;;;;;;;;;;5029982;28;20152;-50
2021/10/05 10:22:25;;;;;;;5.82;4.90;;;;;;;;;;5035817;28;20033;-52
2021/10/05 10:24:58;;;;;;;6.63;4.97;;;;;;;;;;5029135;28;20145;-51
2021/10/05 10:27:26;;;;;;;5.57;4.18;;;;;;;;;;5026654;28;20041;-54
2021/10/05 10:30:09;;;;;;;5.82;4.03;;;;;;;;;;5025803;28;20675;-53
2021/10/05 10:32:52;;;;;;;7.10;5.30;;;;;;;;;;5029952;28;20061;-52
2021/10/05 10:35:20;;;;;;;6.72;4.90;;;;;;;;;;5027643;28;20120;-51
2021/10/05 10:37:48;;;;;;;6.65;4.78;;;;;;;;;;5030062;28;20471;-49
2021/10/05 10:40:16;;;;;;;5.82;4.53;;;;;;;;;;5024790;28;20069;-51
2021/10/05 10:42:43;;;;;;;6.70;5.63;;;;;;;;;;5014642;28;20050;-53
2021/10/05 10:45:20;;;;;;;7.55;5.60;;;;;;;;;;5028266;28;20141;-51
2021/10/05 10:47:52;;;;;;;7.72;5.75;;;;;;;;;;5029626;28;20045;-48
2021/10/05 10:50:19;;;;;;;6.50;5.40;;;;;;;;;;5022129;28;20065;-57
2021/10/05 10:52:47;;;;;;;7.07;5.00;;;;;;;;;;5032370;28;20144;-55
2021/10/05 10:55:20;;;;;;;8.88;5.63;;;;;;;;;;5026893;28;20495;-56
2021/10/05 10:57:54;;;;;;;8.25;5.82;;;;;;;;;;5028811;28;20042;-55
2021/10/05 11:00:31;;;;;;;8.50;6.07;;;;;;;;;;5025318;28;20423;-56
2021/10/05 11:02:58;;;;;;;7.03;5.07;;;;;;;;;;5024059;28;20044;-58
2021/10/05 11:05:29;;;;;;;8.30;5.65;;;;;;;;;;5023786;28;20052;-55
2021/10/05 11:07:57;;;;;;;9.20;6.20;;;;;;;;;;5024519;28;20391;-49
2021/10/05 11:10:25;;;;;;;7.38;5.15;;;;;;;;;;5020600;28;20153;-53
2021/10/05 11:12:54;;;;;;;7.45;4.65;;;;;;;;;;5025859;28;20068;-59
2021/10/05 11:15:34;;;;;;;6.47;4.82;;;;;;;;;;5029886;28;20072;-57
2021/10/05 11:18:09;;;;;;;6.93;5.43;;;;;;;;;;5024076;28;20451;-57
2021/10/05 11:20:42;;;;;;;5.97;4.97;;;;;;;;;;5021814;28;20037;-53
2021/10/05 11:23:09;;;;;;;7.05;5.43;;;;;;;;;;5022852;28;20092;-51
2021/10/05 11:25:36;;;;;;;6.65;5.10;;;;;;;;;;5028868;28;20046;-50
2021/10/05 11:28:10;;;;;;;6.80;5.38;;;;;;;;;;5037141;28;20034;-52
2021/10/05 11:30:54;;;;;;;8.13;5.25;;;;;;;;;;5023442;28;20259;-55
2021/10/05 11:33:41;;;;;;;5.60;4.80;;;;;;;;;;5023596;28;20040;-55
2021/10/05 11:36:16;;;;;;;6.28;5.22;;;;;;;;;;5026959;28;20859;-51
2021/10/05 11:38:44;;;;;;;6.60;4.40;;;;;;;;;;5010414;28;20220;-51
2021/10/05 11:41:11;;;;;;;5.75;4.68;;;;;;;;;;5030680;28;20068;-50
2021/10/05 11:43:39;;;;;;;6.30;4.18;;;;;;;;;;5012205;28;20048;-54
2021/10/05 11:46:14;;;;;;;5.85;4.50;;;;;;;;;;5027938;28;20445;-51
2021/10/05 11:48:47;;;;;;;5.70;4.28;;;;;;;;;;5026819;28;20052;-52
2021/10/05 11:51:16;;;;;;;8.02;5.18;;;;;;;;;;5036949;28;20069;-53
2021/10/05 11:53:43;;;;;;;10.85;8.23;;;;;;;;;;5034356;28;20076;-52
2021/10/05 11:56:11;;;;;;;6.32;4.50;;;;;;;;;;5028865;28;20037;-49
2021/10/05 11:58:47;;;;;;;6.13;4.63;;;;;;;;;;5030150;28;20042;-49
2021/10/05 12:01:16;;;;;;;8.82;4.60;;;;;;;;;;5026910;28;20159;-49
2021/10/05 12:03:47;;;;;;;6.60;4.72;;;;;;;;;;5025169;28;20396;-48
2021/10/05 12:06:24;;;;;;;8.48;6.50;;;;;;;;;;5027594;28;20517;-50
2021/10/05 12:08:51;;;;;;;6.65;4.50;;;;;;;;;;5028220;28;20072;-55
2021/10/05 12:11:17;;;;;;;5.20;4.55;;;;;;;;;;5029559;28;20069;-53
2021/10/05 12:13:45;;;;;;;7.72;4.90;;;;;;;;;;5031838;28;20041;-50
2021/10/05 12:16:12;;;;;;;6.85;5.13;;;;;;;;;;5025288;28;20049;-56
2021/10/05 12:18:40;;;;;;;5.55;4.55;;;;;;;;;;5025531;28;20038;-55
2021/10/05 12:21:09;;;;;;;6.22;3.88;;;;;;;;;;5026698;28;20558;-55
2021/10/05 12:23:36;;;;;;;6.55;4.10;;;;;;;;;;5026212;28;20044;-56
2021/10/05 12:26:10;;;;;;;6.85;3.92;;;;;;;;;;5028734;28;20041;-58
2021/10/05 12:28:37;;;;;;;6.72;4.80;;;;;;;;;;5028203;28;20379;-57
2021/10/05 12:31:14;;;;;;;5.88;4.70;;;;;;;;;;5020231;28;20060;-49
2021/10/05 12:33:51;;;;;;;8.10;5.40;;;;;;;;;;5026130;28;20072;-52
2021/10/05 12:36:21;;;;;;;7.25;4.70;;;;;;;;;;5027749;28;20042;-52
2021/10/05 12:38:48;;;;;;;5.47;4.30;;;;;;;;;;5015245;28;20069;-55
2021/10/05 12:41:15;;;;;;;5.97;4.15;;;;;;;;;;5023563;28;20041;-54
2021/10/05 12:43:42;;;;;;;6.25;4.20;;;;;;;;;;5029164;28;20124;-56
2021/10/05 12:46:19;;;;;;;6.43;3.92;;;;;;;;;;5027049;28;20708;-56
2021/10/05 12:48:48;;;;;;;5.68;3.55;;;;;;;;;;5028492;28;20662;-49
2021/10/05 12:51:15;;;;;;;7.47;4.38;;;;;;;;;;5031448;28;20395;-58
2021/10/05 12:53:43;;;;;;;6.25;3.95;;;;;;;;;;5021915;28;20045;-50
2021/10/05 12:56:10;;;;;;;4.50;3.88;;;;;;;;;;5033790;28;20041;-51
2021/10/05 12:58:38;;;;;;;7.57;3.90;;;;;;;;;;5028680;28;20056;-57
2021/10/05 13:01:06;;;;;;;5.22;4.20;;;;;;;;;;5023180;28;20045;-57
2021/10/05 13:03:36;;;;;;;5.57;3.47;;;;;;;;;;5023877;28;20033;-58
2021/10/05 13:06:04;;;;;;;5.57;4.22;;;;;;;;;;5022749;28;20108;-57
2021/10/05 13:08:31;;;;;;;4.68;3.33;;;;;;;;;;5032247;28;20502;-57
2021/10/05 13:10:58;;;;;;;5.70;3.97;;;;;;;;;;5031930;28;20064;-53
2021/10/05 13:13:25;;;;;;;4.80;3.63;;;;;;;;;;5032236;28;20121;-56
2021/10/05 13:15:51;;;;;;;5.18;3.95;;;;;;;;;;5028390;28;20049;-56
2021/10/05 13:18:18;;;;;;;6.07;3.67;;;;;;;;;;5032429;28;20068;-54
2021/10/05 13:20:45;;;;;;;4.40;3.42;;;;;;;;;;5032816;28;20391;-58
2021/10/05 13:23:12;;;;;;;4.75;3.60;;;;;;;;;;5030965;28;20121;-54
2021/10/05 13:25:39;;;;;;;5.75;3.95;;;;;;;;;;5032707;28;20568;-57
2021/10/05 13:28:06;;;;;;;4.82;3.55;;;;;;;;;;5013159;28;20449;-57
2021/10/05 13:30:33;;;;;;;5.55;3.63;;;;;;;;;;5030126;28;20080;-55
2021/10/05 13:33:00;;;;;;;4.03;2.90;;;;;;;;;;5040568;28;20045;-54
2021/10/05 13:35:27;;;;;;;8.50;4.18;;;;;;;;;;5030457;28;20037;-55
2021/10/05 13:37:53;;;;;;;5.32;3.65;;;;;;;;;;5030081;28;21129;-56
2021/10/05 13:40:23;;;;;;;6.00;3.92;;;;;;;;;;5032040;28;20617;-56
2021/10/05 13:42:52;;;;;;;5.03;3.78;;;;;;;;;;5031816;28;20372;-51
2021/10/05 13:45:19;;;;;;;6.70;3.72;;;;;;;;;;5031273;28;20037;-54
2021/10/05 13:47:46;;;;;;;6.10;3.60;;;;;;;;;;5031008;28;20100;-53
2021/10/05 13:50:13;;;;;;;6.82;3.70;;;;;;;;;;5033537;28;20034;-54
2021/10/05 13:52:44;;;;;;;7.47;3.83;;;;;;;;;;5030600;28;20532;-56
2021/10/05 13:55:11;;;;;;;6.45;4.45;;;;;;;;;;5025054;28;20443;-52
2021/10/05 13:57:38;;;;;;;4.78;3.67;;;;;;;;;;5030779;28;20049;-54
2021/10/05 14:00:06;;;;;;;5.57;3.50;;;;;;;;;;5026658;28;20128;-51
2021/10/05 14:02:36;;;;;;;5.82;3.80;;;;;;;;;;5032079;28;20049;-51
2021/10/05 14:05:04;;;;;;;6.28;3.38;;;;;;;;;;5012109;28;20049;-49
2021/10/05 14:07:31;;;;;;;4.75;3.45;;;;;;;;;;5027787;28;20125;-55
2021/10/05 14:09:58;;;;;;;4.40;3.13;;;;;;;;;;5017874;28;20056;-53
2021/10/05 14:12:26;;;;;;;5.50;3.67;;;;;;;;;;5032427;28;20080;-52
2021/10/05 14:14:53;;;;;;;5.50;3.67;;;;;;;;;;5027104;28;20065;-52
2021/10/05 14:17:20;;;;;;;5.65;3.28;;;;;;;;;;5030765;28;20116;-58
2021/10/05 14:19:48;;;;;;;5.45;2.95;;;;;;;;;;5029277;28;20049;-54
2021/10/05 14:22:16;;;;;;;5.22;3.33;;;;;;;;;;5031636;28;20049;-55
2021/10/05 14:24:43;;;;;;;4.97;3.22;;;;;;;;;;5031697;28;20049;-53
2021/10/05 14:27:10;;;;;;;5.85;3.67;;;;;;;;;;5030518;28;20128;-52
2021/10/05 14:29:37;;;;;;;5.78;3.30;;;;;;;;;;5030302;28;20049;-54
2021/10/05 14:32:04;;;;;;;4.90;3.38;;;;;;;;;;5031843;28;20033;-54
2021/10/05 14:34:31;;;;;;;5.93;3.05;;;;;;;;;;5029819;28;20055;-54